sensor_id;sensor_type;location;lat;lon;timestamp;temperature;humidity
15765;DHT22;7983;50.744;7.086;2023-09-30T00:02:12;15.90;99.90
15765;DHT22;7983;50.744;7.086;2023-09-30T00:04:39;15.90;99.90
15765;DHT22;7983;50.744;7.086;2023-09-30T00:07:05;15.80;99.90
15765;DHT22;7983;50.744;7.086;2023-09-30T00:09:31;15.90;99.90
15765;DHT22;7983;50.744;7.086;2023-09-30T00:11:59;15.80;99.90
15765;DHT22;7983;50.744;7.086;2023-09-30T00:14:27;15.80;99.90
15765;DHT22;7983;50.744;7.086;2023-09-30T00:16:57;15.80;99.90
15765;DHT22;7983;50.744;7.086;2023-09-30T00:19:25;15.70;99.90
15765;DHT22;7983;50.744;7.086;2023-09-30T00:21:51;15.70;99.90
15765;DHT22;7983;50.744;7.086;2023-09-30T00:24:17;15.70;99.90
15765;DHT22;7983;50.744;7.086;2023-09-30T00:26:42;15.70;99.90
15765;DHT22;7983;50.744;7.086;2023-09-30T00:29:08;15.60;99.90
15765;DHT22;7983;50.744;7.086;2023-09-30T00:31:37;15.60;99.90
15765;DHT22;7983;50.744;7.086;2023-09-30T00:34:03;15.60;99.90
15765;DHT22;7983;50.744;7.086;2023-09-30T00:36:31;15.60;99.90
15765;DHT22;7983;50.744;7.086;2023-09-30T00:38:58;15.60;99.90
15765;DHT22;7983;50.744;7.086;2023-09-30T00:41:24;15.50;99.90
15765;DHT22;7983;50.744;7.086;2023-09-30T00:43:50;15.50;99.90
15765;DHT22;7983;50.744;7.086;2023-09-30T00:46:32;15.50;99.90
15765;DHT22;7983;50.744;7.086;2023-09-30T00:49:01;15.50;99.90
15765;DHT22;7983;50.744;7.086;2023-09-30T00:51:28;15.50;99.90
15765;DHT22;7983;50.744;7.086;2023-09-30T00:53:59;15.50;99.90
15765;DHT22;7983;50.744;7.086;2023-09-30T00:56:26;15.50;99.90
15765;DHT22;7983;50.744;7.086;2023-09-30T00:58:55;15.50;99.90
15765;DHT22;7983;50.744;7.086;2023-09-30T01:01:21;15.50;99.90
15765;DHT22;7983;50.744;7.086;2023-09-30T01:03:49;15.50;99.90
15765;DHT22;7983;50.744;7.086;2023-09-30T01:06:15;15.40;99.90
15765;DHT22;7983;50.744;7.086;2023-09-30T01:08:41;15.40;99.90
15765;DHT22;7983;50.744;7.086;2023-09-30T01:11:07;15.40;99.90
15765;DHT22;7983;50.744;7.086;2023-09-30T01:13:37;15.40;99.90
15765;DHT22;7983;50.744;7.086;2023-09-30T01:16:07;15.40;99.90
15765;DHT22;7983;50.744;7.086;2023-09-30T01:18:35;15.40;99.90
15765;DHT22;7983;50.744;7.086;2023-09-30T01:21:06;15.30;99.90
15765;DHT22;7983;50.744;7.086;2023-09-30T01:23:35;15.30;99.90
15765;DHT22;7983;50.744;7.086;2023-09-30T01:26:11;15.30;99.90
15765;DHT22;7983;50.744;7.086;2023-09-30T01:28:43;15.30;99.90
15765;DHT22;7983;50.744;7.086;2023-09-30T01:31:09;15.30;99.90
15765;DHT22;7983;50.744;7.086;2023-09-30T01:33:39;15.30;99.90
15765;DHT22;7983;50.744;7.086;2023-09-30T01:36:05;15.30;99.90
15765;DHT22;7983;50.744;7.086;2023-09-30T01:38:31;15.30;99.90
15765;DHT22;7983;50.744;7.086;2023-09-30T01:40:59;15.30;99.90
15765;DHT22;7983;50.744;7.086;2023-09-30T01:43:27;15.40;99.90
15765;DHT22;7983;50.744;7.086;2023-09-30T01:45:53;15.40;99.90
15765;DHT22;7983;50.744;7.086;2023-09-30T01:48:19;15.40;99.90
15765;DHT22;7983;50.744;7.086;2023-09-30T01:50:47;15.40;99.90
15765;DHT22;7983;50.744;7.086;2023-09-30T01:53:13;15.30;99.90
15765;DHT22;7983;50.744;7.086;2023-09-30T01:55:41;15.40;99.90
15765;DHT22;7983;50.744;7.086;2023-09-30T01:58:07;15.40;99.90
15765;DHT22;7983;50.744;7.086;2023-09-30T02:00:35;15.30;99.90
15765;DHT22;7983;50.744;7.086;2023-09-30T02:03:00;15.40;99.90
15765;DHT22;7983;50.744;7.086;2023-09-30T02:05:28;15.40;99.90
15765;DHT22;7983;50.744;7.086;2023-09-30T02:07:54;15.30;99.90
15765;DHT22;7983;50.744;7.086;2023-09-30T02:10:20;15.30;99.90
15765;DHT22;7983;50.744;7.086;2023-09-30T02:12:46;15.30;99.90
15765;DHT22;7983;50.744;7.086;2023-09-30T02:15:13;15.30;99.90
15765;DHT22;7983;50.744;7.086;2023-09-30T02:17:41;15.30;99.90
15765;DHT22;7983;50.744;7.086;2023-09-30T02:20:13;15.40;99.90
15765;DHT22;7983;50.744;7.086;2023-09-30T02:22:46;15.30;99.90
15765;DHT22;7983;50.744;7.086;2023-09-30T02:25:13;15.30;99.90
15765;DHT22;7983;50.744;7.086;2023-09-30T02:27:42;15.30;99.90
15765;DHT22;7983;50.744;7.086;2023-09-30T02:30:09;15.30;99.90
15765;DHT22;7983;50.744;7.086;2023-09-30T02:32:39;15.30;99.90
15765;DHT22;7983;50.744;7.086;2023-09-30T02:35:09;15.30;99.90
15765;DHT22;7983;50.744;7.086;2023-09-30T02:37:41;15.30;99.90
15765;DHT22;7983;50.744;7.086;2023-09-30T02:40:07;15.30;99.90
15765;DHT22;7983;50.744;7.086;2023-09-30T02:42:38;15.30;99.90
15765;DHT22;7983;50.744;7.086;2023-09-30T02:45:05;15.30;99.90
15765;DHT22;7983;50.744;7.086;2023-09-30T02:47:32;15.30;99.90
15765;DHT22;7983;50.744;7.086;2023-09-30T02:49:58;15.30;99.90
15765;DHT22;7983;50.744;7.086;2023-09-30T02:52:24;15.30;99.90
15765;DHT22;7983;50.744;7.086;2023-09-30T02:54:54;15.30;99.90
15765;DHT22;7983;50.744;7.086;2023-09-30T02:57:23;15.30;99.90
15765;DHT22;7983;50.744;7.086;2023-09-30T02:59:48;15.30;99.90
15765;DHT22;7983;50.744;7.086;2023-09-30T03:02:14;15.30;99.90
15765;DHT22;7983;50.744;7.086;2023-09-30T03:04:43;15.30;99.90
15765;DHT22;7983;50.744;7.086;2023-09-30T03:07:09;15.30;99.90
15765;DHT22;7983;50.744;7.086;2023-09-30T03:09:37;15.30;99.90
15765;DHT22;7983;50.744;7.086;2023-09-30T03:12:03;15.20;99.90
15765;DHT22;7983;50.744;7.086;2023-09-30T03:14:36;15.20;99.90
15765;DHT22;7983;50.744;7.086;2023-09-30T03:17:04;15.20;99.90
15765;DHT22;7983;50.744;7.086;2023-09-30T03:19:30;15.20;99.90
15765;DHT22;7983;50.744;7.086;2023-09-30T03:21:56;15.20;99.90
15765;DHT22;7983;50.744;7.086;2023-09-30T03:24:24;15.20;99.90
15765;DHT22;7983;50.744;7.086;2023-09-30T03:26:50;15.20;99.90
15765;DHT22;7983;50.744;7.086;2023-09-30T03:29:15;15.20;99.90
15765;DHT22;7983;50.744;7.086;2023-09-30T03:31:45;15.20;99.90
15765;DHT22;7983;50.744;7.086;2023-09-30T03:34:13;15.20;99.90
15765;DHT22;7983;50.744;7.086;2023-09-30T03:36:41;15.10;99.90
15765;DHT22;7983;50.744;7.086;2023-09-30T03:39:07;15.10;99.90
15765;DHT22;7983;50.744;7.086;2023-09-30T03:41:34;15.10;99.90
15765;DHT22;7983;50.744;7.086;2023-09-30T03:44:02;15.10;99.90
15765;DHT22;7983;50.744;7.086;2023-09-30T03:46:30;15.00;99.90
15765;DHT22;7983;50.744;7.086;2023-09-30T03:48:56;15.00;99.90
15765;DHT22;7983;50.744;7.086;2023-09-30T03:51:22;15.00;99.90
15765;DHT22;7983;50.744;7.086;2023-09-30T03:53:51;14.90;99.90
15765;DHT22;7983;50.744;7.086;2023-09-30T03:56:17;14.90;99.90
15765;DHT22;7983;50.744;7.086;2023-09-30T03:58:46;14.90;99.90
15765;DHT22;7983;50.744;7.086;2023-09-30T04:01:13;14.90;99.90
15765;DHT22;7983;50.744;7.086;2023-09-30T04:03:40;14.90;99.90
15765;DHT22;7983;50.744;7.086;2023-09-30T04:06:08;14.80;99.90
15765;DHT22;7983;50.744;7.086;2023-09-30T04:08:34;14.80;99.90
15765;DHT22;7983;50.744;7.086;2023-09-30T04:11:01;14.80;99.90
15765;DHT22;7983;50.744;7.086;2023-09-30T04:13:28;14.70;99.90
15765;DHT22;7983;50.744;7.086;2023-09-30T04:15:56;14.70;99.90
15765;DHT22;7983;50.744;7.086;2023-09-30T04:18:23;14.60;99.90
15765;DHT22;7983;50.744;7.086;2023-09-30T04:20:52;14.60;99.90
15765;DHT22;7983;50.744;7.086;2023-09-30T04:23:22;14.50;99.90
15765;DHT22;7983;50.744;7.086;2023-09-30T04:25:50;14.60;99.90
15765;DHT22;7983;50.744;7.086;2023-09-30T04:28:16;14.50;99.90
15765;DHT22;7983;50.744;7.086;2023-09-30T04:30:47;14.50;99.90
15765;DHT22;7983;50.744;7.086;2023-09-30T04:33:18;14.50;99.90
15765;DHT22;7983;50.744;7.086;2023-09-30T04:35:43;14.50;99.90
15765;DHT22;7983;50.744;7.086;2023-09-30T04:38:15;14.50;99.90
15765;DHT22;7983;50.744;7.086;2023-09-30T04:40:43;14.50;99.90
15765;DHT22;7983;50.744;7.086;2023-09-30T04:43:10;14.50;99.90
15765;DHT22;7983;50.744;7.086;2023-09-30T04:45:39;14.50;99.90
15765;DHT22;7983;50.744;7.086;2023-09-30T04:48:08;14.50;99.90
15765;DHT22;7983;50.744;7.086;2023-09-30T04:50:36;14.50;99.90
15765;DHT22;7983;50.744;7.086;2023-09-30T04:53:03;14.40;99.90
15765;DHT22;7983;50.744;7.086;2023-09-30T04:55:29;14.40;99.90
15765;DHT22;7983;50.744;7.086;2023-09-30T04:57:56;14.30;99.90
15765;DHT22;7983;50.744;7.086;2023-09-30T05:00:22;14.30;99.90
15765;DHT22;7983;50.744;7.086;2023-09-30T05:02:51;14.30;99.90
15765;DHT22;7983;50.744;7.086;2023-09-30T05:05:18;14.20;99.90
15765;DHT22;7983;50.744;7.086;2023-09-30T05:07:46;14.10;99.90
15765;DHT22;7983;50.744;7.086;2023-09-30T05:10:13;14.20;99.90
15765;DHT22;7983;50.744;7.086;2023-09-30T05:12:47;14.20;99.90
15765;DHT22;7983;50.744;7.086;2023-09-30T05:15:13;14.10;99.90
15765;DHT22;7983;50.744;7.086;2023-09-30T05:17:42;14.10;99.90
15765;DHT22;7983;50.744;7.086;2023-09-30T05:20:10;14.10;99.90
15765;DHT22;7983;50.744;7.086;2023-09-30T05:22:38;14.10;99.90
15765;DHT22;7983;50.744;7.086;2023-09-30T05:25:06;14.10;99.90
15765;DHT22;7983;50.744;7.086;2023-09-30T05:27:32;14.20;99.90
15765;DHT22;7983;50.744;7.086;2023-09-30T05:29:58;14.20;99.90
15765;DHT22;7983;50.744;7.086;2023-09-30T05:32:28;14.20;99.90
15765;DHT22;7983;50.744;7.086;2023-09-30T05:34:54;14.20;99.90
15765;DHT22;7983;50.744;7.086;2023-09-30T05:37:21;14.10;99.90
15765;DHT22;7983;50.744;7.086;2023-09-30T05:39:47;14.10;99.90
15765;DHT22;7983;50.744;7.086;2023-09-30T05:42:15;14.10;99.90
15765;DHT22;7983;50.744;7.086;2023-09-30T05:44:46;14.10;99.90
15765;DHT22;7983;50.744;7.086;2023-09-30T05:47:13;14.10;99.90
15765;DHT22;7983;50.744;7.086;2023-09-30T05:49:41;14.10;99.90
15765;DHT22;7983;50.744;7.086;2023-09-30T05:52:09;14.10;99.90
15765;DHT22;7983;50.744;7.086;2023-09-30T05:54:35;14.10;99.90
15765;DHT22;7983;50.744;7.086;2023-09-30T05:57:00;14.10;99.90
15765;DHT22;7983;50.744;7.086;2023-09-30T05:59:30;14.10;99.90
15765;DHT22;7983;50.744;7.086;2023-09-30T06:01:56;14.10;99.90
15765;DHT22;7983;50.744;7.086;2023-09-30T06:04:21;14.10;99.90
15765;DHT22;7983;50.744;7.086;2023-09-30T06:06:49;14.10;99.90
15765;DHT22;7983;50.744;7.086;2023-09-30T06:09:15;14.10;99.90
15765;DHT22;7983;50.744;7.086;2023-09-30T06:11:40;14.00;99.90
15765;DHT22;7983;50.744;7.086;2023-09-30T06:14:07;14.10;99.90
15765;DHT22;7983;50.744;7.086;2023-09-30T06:16:33;14.10;99.90
15765;DHT22;7983;50.744;7.086;2023-09-30T06:19:00;14.10;99.90
15765;DHT22;7983;50.744;7.086;2023-09-30T06:21:25;14.10;99.90
15765;DHT22;7983;50.744;7.086;2023-09-30T06:23:54;14.10;99.90
15765;DHT22;7983;50.744;7.086;2023-09-30T06:26:20;14.10;99.90
15765;DHT22;7983;50.744;7.086;2023-09-30T06:28:47;14.20;99.90
15765;DHT22;7983;50.744;7.086;2023-09-30T06:31:13;14.20;99.90
15765;DHT22;7983;50.744;7.086;2023-09-30T06:33:44;14.20;99.90
15765;DHT22;7983;50.744;7.086;2023-09-30T06:36:11;14.20;99.90
15765;DHT22;7983;50.744;7.086;2023-09-30T06:38:39;14.30;99.90
15765;DHT22;7983;50.744;7.086;2023-09-30T06:41:14;14.30;99.90
15765;DHT22;7983;50.744;7.086;2023-09-30T06:43:42;14.30;99.90
15765;DHT22;7983;50.744;7.086;2023-09-30T06:46:10;14.30;99.90
15765;DHT22;7983;50.744;7.086;2023-09-30T06:48:36;14.30;99.90
15765;DHT22;7983;50.744;7.086;2023-09-30T06:51:05;14.40;99.90
15765;DHT22;7983;50.744;7.086;2023-09-30T06:53:31;14.40;99.90
15765;DHT22;7983;50.744;7.086;2023-09-30T06:56:04;14.40;99.90
15765;DHT22;7983;50.744;7.086;2023-09-30T06:58:30;14.50;99.90
15765;DHT22;7983;50.744;7.086;2023-09-30T07:00:56;14.50;99.90
15765;DHT22;7983;50.744;7.086;2023-09-30T07:03:22;14.50;99.90
15765;DHT22;7983;50.744;7.086;2023-09-30T07:05:47;14.50;99.90
15765;DHT22;7983;50.744;7.086;2023-09-30T07:08:19;14.60;99.90
15765;DHT22;7983;50.744;7.086;2023-09-30T07:10:46;14.60;99.90
15765;DHT22;7983;50.744;7.086;2023-09-30T07:13:16;14.60;99.90
15765;DHT22;7983;50.744;7.086;2023-09-30T07:15:41;14.70;99.90
15765;DHT22;7983;50.744;7.086;2023-09-30T07:18:08;14.70;99.90
15765;DHT22;7983;50.744;7.086;2023-09-30T07:20:42;14.70;99.90
15765;DHT22;7983;50.744;7.086;2023-09-30T07:23:07;14.70;99.90
15765;DHT22;7983;50.744;7.086;2023-09-30T07:25:34;14.80;99.90
15765;DHT22;7983;50.744;7.086;2023-09-30T07:28:00;14.80;99.90
15765;DHT22;7983;50.744;7.086;2023-09-30T07:30:26;14.80;99.90
15765;DHT22;7983;50.744;7.086;2023-09-30T07:32:54;14.80;99.90
15765;DHT22;7983;50.744;7.086;2023-09-30T07:35:20;14.80;99.90
15765;DHT22;7983;50.744;7.086;2023-09-30T07:37:46;14.80;99.90
15765;DHT22;7983;50.744;7.086;2023-09-30T07:40:14;14.90;99.90
15765;DHT22;7983;50.744;7.086;2023-09-30T07:42:40;14.90;99.90
15765;DHT22;7983;50.744;7.086;2023-09-30T07:45:06;15.00;99.90
15765;DHT22;7983;50.744;7.086;2023-09-30T07:47:32;15.00;99.90
15765;DHT22;7983;50.744;7.086;2023-09-30T07:50:01;15.10;99.90
15765;DHT22;7983;50.744;7.086;2023-09-30T07:52:37;15.10;99.90
15765;DHT22;7983;50.744;7.086;2023-09-30T07:55:05;15.10;99.90
15765;DHT22;7983;50.744;7.086;2023-09-30T07:57:31;15.20;99.90
15765;DHT22;7983;50.744;7.086;2023-09-30T07:59:56;15.20;99.90
15765;DHT22;7983;50.744;7.086;2023-09-30T08:02:24;15.30;99.90
15765;DHT22;7983;50.744;7.086;2023-09-30T08:04:58;15.40;99.90
15765;DHT22;7983;50.744;7.086;2023-09-30T08:07:25;15.40;99.90
15765;DHT22;7983;50.744;7.086;2023-09-30T08:09:50;15.50;99.90
15765;DHT22;7983;50.744;7.086;2023-09-30T08:12:16;15.50;99.90
15765;DHT22;7983;50.744;7.086;2023-09-30T08:14:42;15.60;99.90
15765;DHT22;7983;50.744;7.086;2023-09-30T08:17:09;15.60;99.90
15765;DHT22;7983;50.744;7.086;2023-09-30T08:19:36;15.70;99.90
15765;DHT22;7983;50.744;7.086;2023-09-30T08:22:07;15.70;99.90
15765;DHT22;7983;50.744;7.086;2023-09-30T08:24:33;15.80;99.90
15765;DHT22;7983;50.744;7.086;2023-09-30T08:26:58;15.90;99.90
15765;DHT22;7983;50.744;7.086;2023-09-30T08:29:24;15.90;99.90
15765;DHT22;7983;50.744;7.086;2023-09-30T08:31:49;16.00;99.90
15765;DHT22;7983;50.744;7.086;2023-09-30T08:34:16;16.10;99.90
15765;DHT22;7983;50.744;7.086;2023-09-30T08:36:46;16.20;99.90
15765;DHT22;7983;50.744;7.086;2023-09-30T08:39:16;16.20;99.90
15765;DHT22;7983;50.744;7.086;2023-09-30T08:41:44;16.30;99.90
15765;DHT22;7983;50.744;7.086;2023-09-30T08:44:10;16.40;99.90
15765;DHT22;7983;50.744;7.086;2023-09-30T08:46:37;16.50;99.90
15765;DHT22;7983;50.744;7.086;2023-09-30T08:49:05;16.60;99.90
15765;DHT22;7983;50.744;7.086;2023-09-30T08:51:32;16.60;99.90
15765;DHT22;7983;50.744;7.086;2023-09-30T08:53:59;16.70;99.90
15765;DHT22;7983;50.744;7.086;2023-09-30T08:56:29;16.80;99.90
15765;DHT22;7983;50.744;7.086;2023-09-30T08:58:59;16.90;99.90
15765;DHT22;7983;50.744;7.086;2023-09-30T09:01:27;17.10;99.90
15765;DHT22;7983;50.744;7.086;2023-09-30T09:03:53;17.20;99.90
15765;DHT22;7983;50.744;7.086;2023-09-30T09:06:24;17.30;99.90
15765;DHT22;7983;50.744;7.086;2023-09-30T09:08:52;17.40;99.90
15765;DHT22;7983;50.744;7.086;2023-09-30T09:11:18;17.50;99.90
15765;DHT22;7983;50.744;7.086;2023-09-30T09:16:23;17.80;99.90
15765;DHT22;7983;50.744;7.086;2023-09-30T09:18:49;17.90;99.90
15765;DHT22;7983;50.744;7.086;2023-09-30T09:21:20;18.10;99.90
15765;DHT22;7983;50.744;7.086;2023-09-30T09:23:51;18.20;99.90
15765;DHT22;7983;50.744;7.086;2023-09-30T09:26:31;18.50;99.90
15765;DHT22;7983;50.744;7.086;2023-09-30T09:29:04;19.10;99.90
15765;DHT22;7983;50.744;7.086;2023-09-30T09:31:33;19.80;99.90
15765;DHT22;7983;50.744;7.086;2023-09-30T09:34:13;20.60;99.90
15765;DHT22;7983;50.744;7.086;2023-09-30T09:36:45;21.50;99.90
15765;DHT22;7983;50.744;7.086;2023-09-30T09:39:12;22.10;99.90
15765;DHT22;7983;50.744;7.086;2023-09-30T09:41:54;22.50;99.90
15765;DHT22;7983;50.744;7.086;2023-09-30T09:44:23;23.00;99.90
15765;DHT22;7983;50.744;7.086;2023-09-30T09:46:51;23.30;99.90
15765;DHT22;7983;50.744;7.086;2023-09-30T09:49:17;23.40;99.90
15765;DHT22;7983;50.744;7.086;2023-09-30T09:51:45;23.60;99.90
15765;DHT22;7983;50.744;7.086;2023-09-30T09:54:20;23.80;99.90
15765;DHT22;7983;50.744;7.086;2023-09-30T09:56:49;24.20;99.90
15765;DHT22;7983;50.744;7.086;2023-09-30T09:59:18;24.50;99.90
15765;DHT22;7983;50.744;7.086;2023-09-30T10:01:45;24.70;99.90
15765;DHT22;7983;50.744;7.086;2023-09-30T10:04:13;24.90;99.90
15765;DHT22;7983;50.744;7.086;2023-09-30T10:06:43;25.00;99.90
15765;DHT22;7983;50.744;7.086;2023-09-30T10:09:11;25.10;99.90
15765;DHT22;7983;50.744;7.086;2023-09-30T10:11:40;25.30;99.90
15765;DHT22;7983;50.744;7.086;2023-09-30T10:14:05;25.40;99.90
15765;DHT22;7983;50.744;7.086;2023-09-30T10:19:13;25.50;99.90
15765;DHT22;7983;50.744;7.086;2023-09-30T10:24:51;25.30;99.90
15765;DHT22;7983;50.744;7.086;2023-09-30T10:30:05;25.00;99.90
15765;DHT22;7983;50.744;7.086;2023-09-30T10:35:41;24.80;99.90
15765;DHT22;7983;50.744;7.086;2023-09-30T10:40:51;24.80;99.90
15765;DHT22;7983;50.744;7.086;2023-09-30T10:43:36;24.80;99.90
15765;DHT22;7983;50.744;7.086;2023-09-30T10:46:04;24.80;99.90
15765;DHT22;7983;50.744;7.086;2023-09-30T10:48:34;24.80;99.90
15765;DHT22;7983;50.744;7.086;2023-09-30T10:51:16;24.80;99.90
15765;DHT22;7983;50.744;7.086;2023-09-30T10:53:48;24.80;99.90
15765;DHT22;7983;50.744;7.086;2023-09-30T10:56:14;24.80;99.90
15765;DHT22;7983;50.744;7.086;2023-09-30T11:01:20;25.00;99.90
15765;DHT22;7983;50.744;7.086;2023-09-30T11:03:47;25.10;99.90
15765;DHT22;7983;50.744;7.086;2023-09-30T11:06:13;25.20;99.90
15765;DHT22;7983;50.744;7.086;2023-09-30T11:08:45;25.30;99.90
15765;DHT22;7983;50.744;7.086;2023-09-30T11:11:14;25.30;99.90
15765;DHT22;7983;50.744;7.086;2023-09-30T11:13:40;25.40;99.90
15765;DHT22;7983;50.744;7.086;2023-09-30T11:16:06;25.50;99.90
15765;DHT22;7983;50.744;7.086;2023-09-30T11:18:32;25.50;99.90
15765;DHT22;7983;50.744;7.086;2023-09-30T11:21:04;25.30;99.90
15765;DHT22;7983;50.744;7.086;2023-09-30T11:23:31;25.00;99.90
15765;DHT22;7983;50.744;7.086;2023-09-30T11:25:59;24.80;99.90
15765;DHT22;7983;50.744;7.086;2023-09-30T11:28:25;24.70;99.90
15765;DHT22;7983;50.744;7.086;2023-09-30T11:31:02;24.50;99.90
15765;DHT22;7983;50.744;7.086;2023-09-30T11:33:30;24.40;99.90
15765;DHT22;7983;50.744;7.086;2023-09-30T11:36:04;24.20;99.90
15765;DHT22;7983;50.744;7.086;2023-09-30T11:38:34;24.10;99.90
15765;DHT22;7983;50.744;7.086;2023-09-30T11:41:06;24.00;99.90
15765;DHT22;7983;50.744;7.086;2023-09-30T11:43:34;24.10;99.90
15765;DHT22;7983;50.744;7.086;2023-09-30T11:46:11;24.20;99.90
15765;DHT22;7983;50.744;7.086;2023-09-30T11:48:40;24.30;99.90
15765;DHT22;7983;50.744;7.086;2023-09-30T11:51:22;24.20;99.90
15765;DHT22;7983;50.744;7.086;2023-09-30T11:53:52;24.00;99.90
15765;DHT22;7983;50.744;7.086;2023-09-30T11:56:23;23.80;99.90
15765;DHT22;7983;50.744;7.086;2023-09-30T11:58:54;23.60;99.90
15765;DHT22;7983;50.744;7.086;2023-09-30T12:01:22;23.30;99.90
15765;DHT22;7983;50.744;7.086;2023-09-30T12:03:48;23.10;99.90
15765;DHT22;7983;50.744;7.086;2023-09-30T12:06:19;22.80;99.90
15765;DHT22;7983;50.744;7.086;2023-09-30T12:08:47;22.70;99.90
15765;DHT22;7983;50.744;7.086;2023-09-30T12:11:12;22.70;99.90
15765;DHT22;7983;50.744;7.086;2023-09-30T12:13:41;22.70;99.90
15765;DHT22;7983;50.744;7.086;2023-09-30T12:16:09;22.90;99.90
15765;DHT22;7983;50.744;7.086;2023-09-30T12:18:35;23.00;99.90
15765;DHT22;7983;50.744;7.086;2023-09-30T12:21:00;23.10;99.90
15765;DHT22;7983;50.744;7.086;2023-09-30T12:23:28;23.30;99.90
15765;DHT22;7983;50.744;7.086;2023-09-30T12:25:56;23.40;99.90
15765;DHT22;7983;50.744;7.086;2023-09-30T12:28:24;23.50;99.90
15765;DHT22;7983;50.744;7.086;2023-09-30T12:30:49;23.40;99.90
15765;DHT22;7983;50.744;7.086;2023-09-30T12:33:20;23.30;99.90
15765;DHT22;7983;50.744;7.086;2023-09-30T12:35:48;23.30;99.90
15765;DHT22;7983;50.744;7.086;2023-09-30T12:38:14;23.40;99.90
15765;DHT22;7983;50.744;7.086;2023-09-30T12:40:41;23.50;99.90
15765;DHT22;7983;50.744;7.086;2023-09-30T12:43:09;23.70;99.90
15765;DHT22;7983;50.744;7.086;2023-09-30T12:45:35;23.80;99.90
15765;DHT22;7983;50.744;7.086;2023-09-30T12:48:04;23.90;99.90
15765;DHT22;7983;50.744;7.086;2023-09-30T12:50:32;24.00;99.90
15765;DHT22;7983;50.744;7.086;2023-09-30T12:53:00;24.10;99.90
15765;DHT22;7983;50.744;7.086;2023-09-30T12:55:26;24.20;99.90
15765;DHT22;7983;50.744;7.086;2023-09-30T12:57:56;24.40;99.90
15765;DHT22;7983;50.744;7.086;2023-09-30T13:00:22;24.50;99.90
15765;DHT22;7983;50.744;7.086;2023-09-30T13:02:48;24.60;99.90
15765;DHT22;7983;50.744;7.086;2023-09-30T13:05:14;24.60;99.90
15765;DHT22;7983;50.744;7.086;2023-09-30T13:07:42;24.60;99.90
15765;DHT22;7983;50.744;7.086;2023-09-30T13:10:11;24.60;99.90
15765;DHT22;7983;50.744;7.086;2023-09-30T13:12:37;24.70;99.90
15765;DHT22;7983;50.744;7.086;2023-09-30T13:15:08;24.70;99.90
15765;DHT22;7983;50.744;7.086;2023-09-30T13:17:36;24.70;99.90
15765;DHT22;7983;50.744;7.086;2023-09-30T13:20:02;24.70;99.90
15765;DHT22;7983;50.744;7.086;2023-09-30T13:22:33;24.80;99.90
15765;DHT22;7983;50.744;7.086;2023-09-30T13:25:01;24.80;99.90
15765;DHT22;7983;50.744;7.086;2023-09-30T13:27:27;24.90;99.90
15765;DHT22;7983;50.744;7.086;2023-09-30T13:29:56;24.90;99.90
15765;DHT22;7983;50.744;7.086;2023-09-30T13:32:24;24.80;99.90
15765;DHT22;7983;50.744;7.086;2023-09-30T13:34:50;24.90;99.90
15765;DHT22;7983;50.744;7.086;2023-09-30T13:37:19;24.90;99.90
15765;DHT22;7983;50.744;7.086;2023-09-30T13:39:45;24.90;99.90
15765;DHT22;7983;50.744;7.086;2023-09-30T13:42:10;24.90;99.90
15765;DHT22;7983;50.744;7.086;2023-09-30T13:44:38;25.00;99.90
15765;DHT22;7983;50.744;7.086;2023-09-30T13:47:06;25.00;99.90
15765;DHT22;7983;50.744;7.086;2023-09-30T13:49:33;25.00;99.90
15765;DHT22;7983;50.744;7.086;2023-09-30T13:51:59;24.90;99.90
15765;DHT22;7983;50.744;7.086;2023-09-30T13:54:29;24.90;99.90
15765;DHT22;7983;50.744;7.086;2023-09-30T13:56:55;24.90;99.90
15765;DHT22;7983;50.744;7.086;2023-09-30T13:59:21;24.90;99.90
15765;DHT22;7983;50.744;7.086;2023-09-30T14:01:51;24.90;99.90
15765;DHT22;7983;50.744;7.086;2023-09-30T14:04:16;24.90;99.90
15765;DHT22;7983;50.744;7.086;2023-09-30T14:06:44;24.90;99.90
15765;DHT22;7983;50.744;7.086;2023-09-30T14:09:12;24.90;99.90
15765;DHT22;7983;50.744;7.086;2023-09-30T14:11:41;24.90;99.90
15765;DHT22;7983;50.744;7.086;2023-09-30T14:14:07;24.90;99.90
15765;DHT22;7983;50.744;7.086;2023-09-30T14:16:38;24.90;99.90
15765;DHT22;7983;50.744;7.086;2023-09-30T14:19:03;24.90;99.90
15765;DHT22;7983;50.744;7.086;2023-09-30T14:21:29;24.80;99.90
15765;DHT22;7983;50.744;7.086;2023-09-30T14:23:57;24.70;99.90
15765;DHT22;7983;50.744;7.086;2023-09-30T14:26:23;24.60;99.90
15765;DHT22;7983;50.744;7.086;2023-09-30T14:28:51;24.50;99.90
15765;DHT22;7983;50.744;7.086;2023-09-30T14:31:16;24.40;99.90
15765;DHT22;7983;50.744;7.086;2023-09-30T14:33:42;24.30;99.90
15765;DHT22;7983;50.744;7.086;2023-09-30T14:36:10;24.20;99.90
15765;DHT22;7983;50.744;7.086;2023-09-30T14:38:36;24.10;99.90
15765;DHT22;7983;50.744;7.086;2023-09-30T14:41:06;23.90;99.90
15765;DHT22;7983;50.744;7.086;2023-09-30T14:43:33;23.80;99.90
15765;DHT22;7983;50.744;7.086;2023-09-30T14:46:01;23.70;99.90
15765;DHT22;7983;50.744;7.086;2023-09-30T14:48:30;23.60;99.90
15765;DHT22;7983;50.744;7.086;2023-09-30T14:50:58;23.50;99.90
15765;DHT22;7983;50.744;7.086;2023-09-30T14:53:24;23.50;99.90
15765;DHT22;7983;50.744;7.086;2023-09-30T14:55:50;23.40;99.90
15765;DHT22;7983;50.744;7.086;2023-09-30T14:58:18;23.40;99.90
15765;DHT22;7983;50.744;7.086;2023-09-30T15:00:44;23.30;99.90
15765;DHT22;7983;50.744;7.086;2023-09-30T15:03:09;23.30;99.90
15765;DHT22;7983;50.744;7.086;2023-09-30T15:05:37;23.30;99.90
15765;DHT22;7983;50.744;7.086;2023-09-30T15:08:03;23.30;99.90
15765;DHT22;7983;50.744;7.086;2023-09-30T15:10:34;23.20;99.90
15765;DHT22;7983;50.744;7.086;2023-09-30T15:13:00;23.20;99.90
15765;DHT22;7983;50.744;7.086;2023-09-30T15:15:26;23.10;99.90
15765;DHT22;7983;50.744;7.086;2023-09-30T15:17:54;23.10;99.90
15765;DHT22;7983;50.744;7.086;2023-09-30T15:20:20;23.00;99.90
15765;DHT22;7983;50.744;7.086;2023-09-30T15:22:48;23.00;99.90
15765;DHT22;7983;50.744;7.086;2023-09-30T15:25:15;22.80;99.90
15765;DHT22;7983;50.744;7.086;2023-09-30T15:27:43;22.80;99.90
15765;DHT22;7983;50.744;7.086;2023-09-30T15:30:09;22.70;99.90
15765;DHT22;7983;50.744;7.086;2023-09-30T15:32:35;22.60;99.90
15765;DHT22;7983;50.744;7.086;2023-09-30T15:35:06;22.50;99.90
15765;DHT22;7983;50.744;7.086;2023-09-30T15:37:32;22.50;99.90
15765;DHT22;7983;50.744;7.086;2023-09-30T15:39:58;22.40;99.90
15765;DHT22;7983;50.744;7.086;2023-09-30T15:42:23;22.30;99.90
15765;DHT22;7983;50.744;7.086;2023-09-30T15:44:49;22.20;99.90
15765;DHT22;7983;50.744;7.086;2023-09-30T15:47:19;22.20;99.90
15765;DHT22;7983;50.744;7.086;2023-09-30T15:49:45;22.10;99.90
15765;DHT22;7983;50.744;7.086;2023-09-30T15:52:10;22.00;99.90
15765;DHT22;7983;50.744;7.086;2023-09-30T15:54:38;22.00;99.90
15765;DHT22;7983;50.744;7.086;2023-09-30T15:57:06;22.00;99.90
15765;DHT22;7983;50.744;7.086;2023-09-30T15:59:34;21.90;99.90
15765;DHT22;7983;50.744;7.086;2023-09-30T16:02:02;21.90;99.90
15765;DHT22;7983;50.744;7.086;2023-09-30T16:04:30;21.80;99.90
15765;DHT22;7983;50.744;7.086;2023-09-30T16:06:56;21.80;99.90
15765;DHT22;7983;50.744;7.086;2023-09-30T16:09:25;21.70;99.90